createdAt,value
2023-07-09T00:02:27.248Z,86478.03
2023-07-09T00:04:55.707Z,86475.63
2023-07-09T00:07:30.062Z,86482.22
2023-07-09T00:09:59.387Z,86475.19
2023-07-09T00:12:28.880Z,86472.69
2023-07-09T00:14:59.412Z,86471.88
2023-07-09T00:17:35.678Z,86485.56
2023-07-09T00:20:16.060Z,86471.47
2023-07-09T00:22:50.084Z,86475.31
2023-07-09T00:25:19.944Z,86473.22
2023-07-09T00:27:51.392Z,86473.41
2023-07-09T00:30:26.739Z,86464.66
2023-07-09T00:32:56.218Z,86468.66
2023-07-09T00:35:27.597Z,86456.25
2023-07-09T00:37:56.699Z,86459.88
2023-07-09T00:40:27.729Z,86457.91
2023-07-09T00:42:57.956Z,86452.53
2023-07-09T00:45:29.841Z,86454.97
2023-07-09T00:48:03.606Z,86451.28
2023-07-09T00:50:38.326Z,86450.66
2023-07-09T00:53:31.406Z,86458.41
2023-07-09T00:56:11.912Z,86452.91
2023-07-09T00:58:42.014Z,86458.75
2023-07-09T01:01:18.109Z,86439.66
2023-07-09T01:04:06.497Z,86445.00
2023-07-09T01:06:48.035Z,86441.63
2023-07-09T01:09:18.101Z,86449.41
2023-07-09T01:11:47.263Z,86446.34
2023-07-09T01:14:24.078Z,86439.97
2023-07-09T01:17:00.874Z,86438.38
2023-07-09T01:19:33.530Z,86447.56
2023-07-09T01:22:03.723Z,86442.53
2023-07-09T01:24:58.260Z,86455.88
2023-07-09T01:27:31.765Z,86499.44
2023-07-09T01:30:03.090Z,86471.22
2023-07-09T01:32:31.973Z,86480.16
2023-07-09T01:35:07.099Z,86467.53
2023-07-09T01:37:38.993Z,86466.72
2023-07-09T01:40:28.237Z,86475.72
2023-07-09T01:43:00.680Z,86476.44
2023-07-09T01:45:31.200Z,86466.88
2023-07-09T01:48:00.451Z,86462.19
2023-07-09T01:50:29.417Z,86472.16
2023-07-09T01:53:00.134Z,86451.03
2023-07-09T01:55:30.931Z,86466.53
2023-07-09T01:57:59.884Z,86456.88
2023-07-09T02:00:29.348Z,86460.53
2023-07-09T02:02:59.966Z,86464.91
2023-07-09T02:05:28.914Z,86471.63
2023-07-09T02:07:58.148Z,86473.03
2023-07-09T02:10:27.215Z,86481.63
2023-07-09T02:12:56.245Z,86473.72
2023-07-09T02:15:25.348Z,86475.00
2023-07-09T02:17:54.394Z,86477.69
2023-07-09T02:20:23.396Z,86472.84
2023-07-09T02:22:53.269Z,86469.88
2023-07-09T02:25:22.184Z,86475.53
2023-07-09T02:27:51.197Z,86487.03
2023-07-09T02:30:20.723Z,86481.59
2023-07-09T02:32:49.705Z,86487.72
2023-07-09T02:35:18.821Z,86490.91
2023-07-09T02:37:48.001Z,86490.31
2023-07-09T02:40:18.214Z,86488.13
2023-07-09T02:42:47.032Z,86468.81
2023-07-09T02:45:16.327Z,86463.59
2023-07-09T02:47:45.509Z,86462.38
2023-07-09T02:50:14.708Z,86468.13
2023-07-09T02:52:46.961Z,86463.75
2023-07-09T02:55:15.885Z,86470.22
2023-07-09T02:57:44.821Z,86472.72
2023-07-09T03:00:14.480Z,86468.72
2023-07-09T03:02:43.514Z,86465.75
2023-07-09T03:05:12.603Z,86467.34
2023-07-09T03:07:42.284Z,86464.47
2023-07-09T03:10:11.340Z,86468.91
2023-07-09T03:12:40.163Z,86465.84
2023-07-09T03:15:09.466Z,86466.03
2023-07-09T03:17:38.472Z,86472.13
2023-07-09T03:20:10.322Z,86464.91
2023-07-09T03:22:39.285Z,86459.88
2023-07-09T03:25:08.546Z,86471.81
2023-07-09T03:27:37.633Z,86473.88
2023-07-09T03:30:07.028Z,86481.19
2023-07-09T03:32:35.936Z,86472.53
2023-07-09T03:35:05.121Z,86471.84
2023-07-09T03:37:33.980Z,86473.94
2023-07-09T03:40:02.940Z,86472.81
2023-07-09T03:42:32.268Z,86487.13
2023-07-09T03:45:01.195Z,86498.91
2023-07-09T03:47:30.158Z,86494.94
2023-07-09T03:49:59.906Z,86498.28
2023-07-09T03:52:28.801Z,86498.13
2023-07-09T03:54:58.704Z,86503.06
2023-07-09T03:57:28.366Z,86506.94
2023-07-09T03:59:57.280Z,86511.88
2023-07-09T04:02:26.264Z,86512.91
2023-07-09T04:04:55.358Z,86514.00
2023-07-09T04:07:24.787Z,86508.25
2023-07-09T04:09:53.685Z,86507.47
2023-07-09T04:12:22.743Z,86515.69
2023-07-09T04:14:51.577Z,86507.94
2023-07-09T04:17:20.549Z,86509.75
2023-07-09T04:19:49.763Z,86518.19
2023-07-09T04:22:19.136Z,86515.78
2023-07-09T04:24:48.085Z,86517.00
2023-07-09T04:27:17.662Z,86525.72
2023-07-09T04:29:46.628Z,86519.28
2023-07-09T04:32:17.389Z,86538.16
2023-07-09T04:34:46.286Z,86538.22
2023-07-09T04:37:15.442Z,86543.38
2023-07-09T04:39:44.796Z,86539.06
2023-07-09T04:42:16.196Z,86538.50
2023-07-09T04:44:47.750Z,86525.81
2023-07-09T04:47:16.772Z,86527.53
2023-07-09T04:49:46.138Z,86522.88
2023-07-09T04:52:16.909Z,86535.09
2023-07-09T04:54:46.252Z,86532.19
2023-07-09T04:57:15.266Z,86527.69
2023-07-09T04:59:44.561Z,86524.34
2023-07-09T05:02:14.213Z,86525.16
2023-07-09T05:04:43.221Z,86537.91
2023-07-09T05:07:12.285Z,86532.75
2023-07-09T05:09:41.198Z,86521.78
2023-07-09T05:12:10.703Z,86533.47
2023-07-09T05:14:39.907Z,86543.97
2023-07-09T05:17:09.332Z,86546.63
2023-07-09T05:19:38.522Z,86537.09
2023-07-09T05:22:07.734Z,86540.44
2023-07-09T05:24:36.607Z,86548.47
2023-07-09T05:27:05.818Z,86541.13
2023-07-09T05:29:34.895Z,86547.25
2023-07-09T05:32:03.819Z,86540.97
2023-07-09T05:34:32.849Z,86546.25
2023-07-09T05:37:02.021Z,86540.09
2023-07-09T05:39:30.920Z,86538.50
2023-07-09T05:41:59.995Z,86538.56
2023-07-09T05:44:29.319Z,86543.34
2023-07-09T05:46:58.678Z,86533.94
2023-07-09T05:49:27.574Z,86524.69
2023-07-09T05:51:56.635Z,86525.50
2023-07-09T05:54:25.529Z,86534.53
2023-07-09T05:56:54.458Z,86538.38
2023-07-09T05:59:23.752Z,86527.59
2023-07-09T06:01:52.575Z,86535.84
2023-07-09T06:04:21.465Z,86532.91
2023-07-09T06:06:50.580Z,86541.50
2023-07-09T06:09:19.613Z,86529.06
2023-07-09T06:11:48.466Z,86549.38
2023-07-09T06:14:19.163Z,86535.47
2023-07-09T06:16:48.118Z,86546.50
2023-07-09T06:19:17.120Z,86545.75
2023-07-09T06:21:46.162Z,86554.78
2023-07-09T06:24:16.419Z,86555.69
2023-07-09T06:26:45.354Z,86553.84
2023-07-09T06:29:14.502Z,86555.94
2023-07-09T06:31:44.979Z,86558.56
2023-07-09T06:34:14.257Z,86568.13
2023-07-09T06:36:44.445Z,86564.63
2023-07-09T06:39:13.691Z,86563.47
2023-07-09T06:41:42.796Z,86562.78
2023-07-09T06:44:11.887Z,86571.88
2023-07-09T06:46:41.309Z,86564.41
2023-07-09T06:49:11.010Z,86560.31
2023-07-09T06:51:39.920Z,86559.03
2023-07-09T06:54:10.862Z,86564.38
2023-07-09T06:56:40.047Z,86560.31
2023-07-09T06:59:08.939Z,86566.09
2023-07-09T07:01:38.277Z,86575.53
2023-07-09T07:04:07.359Z,86567.69
2023-07-09T07:06:36.828Z,86580.78
2023-07-09T07:09:06.338Z,86582.34
2023-07-09T07:11:35.177Z,86572.53
2023-07-09T07:14:04.198Z,86594.75
2023-07-09T07:16:34.143Z,86576.63
2023-07-09T07:19:03.181Z,86588.97
2023-07-09T07:21:32.130Z,86599.22
2023-07-09T07:24:01.217Z,86608.00
2023-07-09T07:26:30.344Z,86602.13
2023-07-09T07:29:02.046Z,86613.59
2023-07-09T07:31:30.969Z,86603.34
2023-07-09T07:33:59.974Z,86601.84
2023-07-09T07:36:31.635Z,86617.50
2023-07-09T07:39:01.107Z,86615.00
2023-07-09T07:41:30.155Z,86630.06
2023-07-09T07:43:59.234Z,86620.50
2023-07-09T07:46:28.106Z,86626.69
2023-07-09T07:48:57.356Z,86629.56
2023-07-09T07:51:26.384Z,86628.06
2023-07-09T07:53:55.714Z,86629.56
2023-07-09T07:56:25.365Z,86621.69
2023-07-09T07:58:54.245Z,86628.66
2023-07-09T08:01:23.366Z,86625.22
2023-07-09T08:03:52.521Z,86620.59
2023-07-09T08:06:21.982Z,86621.69
2023-07-09T08:08:50.916Z,86617.38
2023-07-09T08:11:20.245Z,86623.75
2023-07-09T08:13:49.259Z,86617.84
2023-07-09T08:16:19.465Z,86614.28
2023-07-09T08:18:48.923Z,86610.38
2023-07-09T08:21:17.831Z,86608.41
2023-07-09T08:23:47.893Z,86612.59
2023-07-09T08:26:17.101Z,86607.53
2023-07-09T08:28:46.180Z,86611.88
2023-07-09T08:31:15.640Z,86606.69
2023-07-09T08:33:44.843Z,86603.19
2023-07-09T08:36:13.948Z,86607.28
2023-07-09T08:38:43.321Z,86609.44
2023-07-09T08:41:44.603Z,86606.41
2023-07-09T08:44:34.859Z,86602.06
2023-07-09T08:47:19.144Z,86602.47
2023-07-09T08:50:02.123Z,86604.75
2023-07-09T08:52:35.811Z,86602.97
2023-07-09T08:55:10.906Z,86601.78
2023-07-09T08:57:43.550Z,86600.00
2023-07-09T09:00:24.808Z,86592.91
2023-07-09T09:03:01.139Z,86579.91
2023-07-09T09:05:33.726Z,86580.97
2023-07-09T09:08:23.380Z,86573.09
2023-07-09T09:10:59.200Z,86574.75
2023-07-09T09:13:35.901Z,86563.00
2023-07-09T09:16:13.029Z,86565.31
2023-07-09T09:18:45.194Z,86562.16
2023-07-09T09:21:25.522Z,86554.81
2023-07-09T09:23:58.849Z,86552.47
2023-07-09T09:26:36.393Z,86546.69
2023-07-09T09:29:14.931Z,86543.84
2023-07-09T09:31:52.086Z,86545.81
2023-07-09T09:34:30.971Z,86540.53
2023-07-09T09:37:01.250Z,86546.16
2023-07-09T09:39:30.292Z,86535.97
2023-07-09T09:42:02.488Z,86529.84
2023-07-09T09:44:33.385Z,86534.88
2023-07-09T09:47:01.977Z,86523.56
2023-07-09T09:49:31.832Z,86520.13
2023-07-09T09:52:05.069Z,86518.69
2023-07-09T09:54:34.219Z,86515.31
2023-07-09T09:57:03.416Z,86511.50
2023-07-09T09:59:39.209Z,86517.25
2023-07-09T10:02:25.859Z,86500.13
2023-07-09T10:04:55.316Z,86498.38
2023-07-09T10:07:34.636Z,86494.69
2023-07-09T10:10:06.784Z,86495.31
2023-07-09T10:12:49.759Z,86482.44
2023-07-09T10:15:43.523Z,86484.06
2023-07-09T10:18:25.148Z,86476.75
2023-07-09T10:21:13.232Z,86477.56
2023-07-09T10:24:01.824Z,86480.88
2023-07-09T10:26:43.874Z,86477.19
2023-07-09T10:29:36.602Z,86460.59
2023-07-09T10:32:32.802Z,86457.28
2023-07-09T10:35:09.662Z,86460.25
2023-07-09T10:38:05.565Z,86455.31
2023-07-09T10:40:48.257Z,86454.91
2023-07-09T10:43:53.605Z,86464.91
2023-07-09T10:46:34.809Z,86454.84
2023-07-09T10:49:08.470Z,86452.72
2023-07-09T10:51:50.701Z,86451.06
2023-07-09T10:54:27.596Z,86455.19
2023-07-09T10:57:15.531Z,86445.72
2023-07-09T10:59:50.113Z,86443.41
2023-07-09T11:02:39.412Z,86441.16
2023-07-09T11:05:12.735Z,86451.19
2023-07-09T11:07:47.951Z,86449.75
2023-07-09T11:10:34.558Z,86446.53
2023-07-09T11:13:21.297Z,86446.75
2023-07-09T11:15:59.301Z,86447.16
2023-07-09T11:18:32.834Z,86441.13
2023-07-09T11:21:19.195Z,86443.09
2023-07-09T11:24:04.327Z,86440.38
2023-07-09T11:26:35.866Z,86429.56
2023-07-09T11:29:04.751Z,86439.66
2023-07-09T11:31:48.260Z,86433.66
2023-07-09T11:34:19.165Z,86442.91
2023-07-09T11:37:00.345Z,86440.66
2023-07-09T11:39:44.594Z,86435.63
2023-07-09T11:42:26.966Z,86443.03
2023-07-09T11:45:12.194Z,86438.88
2023-07-09T11:47:54.628Z,86432.50
2023-07-09T11:50:31.565Z,86434.47
2023-07-09T11:53:06.146Z,86434.50
2023-07-09T11:55:48.136Z,86427.75
2023-07-09T11:58:20.228Z,86421.34
2023-07-09T12:00:58.505Z,86415.72
2023-07-09T12:03:37.403Z,86423.72
2023-07-09T12:06:16.014Z,86425.63
2023-07-09T12:08:47.151Z,86414.81
2023-07-09T12:11:23.939Z,86411.63
2023-07-09T12:13:54.154Z,86411.97
2023-07-09T12:16:36.628Z,86413.13
2023-07-09T12:19:06.281Z,86415.56
2023-07-09T12:21:40.817Z,86409.94
2023-07-09T12:24:25.198Z,86410.44
2023-07-09T12:26:56.193Z,86417.84
2023-07-09T12:29:29.416Z,86422.25
2023-07-09T12:32:04.795Z,86420.75
2023-07-09T12:34:34.496Z,86423.78
2023-07-09T12:37:03.470Z,86424.88
2023-07-09T12:39:35.869Z,86428.66
2023-07-09T12:42:06.019Z,86427.81
2023-07-09T12:44:39.032Z,86435.72
2023-07-09T12:47:08.511Z,86425.69
2023-07-09T12:49:47.073Z,86427.31
2023-07-09T12:52:22.185Z,86438.47
2023-07-09T12:55:02.921Z,86434.13
2023-07-09T12:57:32.731Z,86435.78
2023-07-09T13:00:03.320Z,86437.81
2023-07-09T13:02:32.397Z,86441.97
2023-07-09T13:05:07.493Z,86443.25
2023-07-09T13:07:40.895Z,86443.44
2023-07-09T13:10:20.618Z,86449.00
2023-07-09T13:12:52.974Z,86445.78
2023-07-09T13:15:27.011Z,86450.66
2023-07-09T13:18:07.336Z,86455.94
2023-07-09T13:20:40.305Z,86449.56
2023-07-09T13:23:15.075Z,86455.50
2023-07-09T13:25:48.184Z,86456.84
2023-07-09T13:28:29.283Z,86453.34
2023-07-09T13:31:10.870Z,86467.31
2023-07-09T13:33:40.124Z,86461.97
2023-07-09T13:36:09.220Z,86464.75
2023-07-09T13:38:39.506Z,86469.25
2023-07-09T13:41:18.839Z,86469.66
2023-07-09T13:43:50.471Z,86472.16
2023-07-09T13:46:19.906Z,86472.25
2023-07-09T13:48:49.376Z,86484.41
2023-07-09T13:51:23.145Z,86484.28
2023-07-09T13:53:59.605Z,86486.84
2023-07-09T13:56:28.680Z,86486.50
2023-07-09T13:58:59.197Z,86489.13
2023-07-09T14:01:28.568Z,86481.75
2023-07-09T14:04:00.681Z,86488.38
2023-07-09T14:06:30.034Z,86499.59
2023-07-09T14:08:59.297Z,86498.22
2023-07-09T14:11:28.785Z,86504.69
2023-07-09T14:13:58.620Z,86508.47
2023-07-09T14:16:27.662Z,86524.41
2023-07-09T14:18:56.584Z,86521.66
2023-07-09T14:21:29.666Z,86527.81
2023-07-09T14:23:59.521Z,86529.97
2023-07-09T14:26:29.086Z,86534.53
2023-07-09T14:29:00.406Z,86534.34
2023-07-09T14:31:33.654Z,86546.91
2023-07-09T14:34:23.925Z,86541.59
2023-07-09T14:36:54.720Z,86542.78
2023-07-09T14:39:25.280Z,86543.56
2023-07-09T14:41:54.634Z,86554.59
2023-07-09T14:44:32.421Z,86552.59
2023-07-09T14:47:04.288Z,86562.03
2023-07-09T14:49:33.999Z,86568.69
2023-07-09T14:52:03.408Z,86565.06
2023-07-09T14:54:32.963Z,86580.53
2023-07-09T14:57:02.293Z,86566.13
2023-07-09T14:59:31.957Z,86579.66
2023-07-09T15:02:01.646Z,86582.16
2023-07-09T15:04:37.258Z,86583.25
2023-07-09T15:07:11.162Z,86589.13
2023-07-09T15:09:40.676Z,86597.56
2023-07-09T15:12:27.743Z,86605.75
2023-07-09T15:15:14.248Z,86609.44
2023-07-09T15:17:43.346Z,86605.97
2023-07-09T15:20:21.886Z,86612.63
2023-07-09T15:22:52.212Z,86622.91
2023-07-09T15:25:27.086Z,86631.66
2023-07-09T15:27:58.238Z,86640.91
2023-07-09T15:30:33.177Z,86637.94
2023-07-09T15:33:08.119Z,86647.59
2023-07-09T15:35:39.796Z,86648.47
2023-07-09T15:38:36.941Z,86653.94
2023-07-09T15:41:07.321Z,86659.31
2023-07-09T15:43:46.096Z,86660.84
2023-07-09T15:46:21.475Z,86663.13
2023-07-09T15:48:54.124Z,86668.69
2023-07-09T15:51:24.851Z,86663.34
2023-07-09T15:53:53.714Z,86665.88
2023-07-09T15:56:32.613Z,86672.19
2023-07-09T15:59:03.300Z,86678.19
2023-07-09T16:01:33.250Z,86677.56
2023-07-09T16:04:10.879Z,86689.13
2023-07-09T16:06:42.405Z,86686.16
2023-07-09T16:09:17.370Z,86704.53
2023-07-09T16:11:54.351Z,86703.00
2023-07-09T16:14:35.345Z,86712.31
2023-07-09T16:17:04.508Z,86718.81
2023-07-09T16:19:33.864Z,86723.22
2023-07-09T16:22:06.668Z,86732.53
2023-07-09T16:24:42.706Z,86737.91
2023-07-09T16:27:18.478Z,86745.13
2023-07-09T16:29:47.705Z,86754.81
2023-07-09T16:32:18.170Z,86760.81
2023-07-09T16:34:47.517Z,86763.00
2023-07-09T16:37:24.354Z,86780.44
2023-07-09T16:39:53.743Z,86763.38
2023-07-09T16:42:23.148Z,86756.75
2023-07-09T16:44:52.998Z,86769.31
2023-07-09T16:47:23.927Z,86777.75
2023-07-09T16:49:52.398Z,86791.72
2023-07-09T16:52:25.091Z,86786.50
2023-07-09T16:54:56.295Z,86797.28
2023-07-09T16:57:29.593Z,86801.75
2023-07-09T17:00:23.592Z,86804.34
2023-07-09T17:02:53.878Z,86800.69
2023-07-09T17:05:26.981Z,86802.66
2023-07-09T17:07:56.567Z,86809.22
2023-07-09T17:10:26.014Z,86809.88
2023-07-09T17:13:00.789Z,86815.56
2023-07-09T17:15:42.267Z,86815.66
2023-07-09T17:18:30.879Z,86820.94
2023-07-09T17:21:05.546Z,86818.13
2023-07-09T17:23:35.124Z,86824.19
2023-07-09T17:26:04.586Z,86827.25
2023-07-09T17:28:34.578Z,86831.94
2023-07-09T17:31:04.684Z,86827.03
